sensor_id;sensor_type;location;lat;lon;timestamp;pressure;altitude;pressure_sealevel;temperature;humidity
34185;BME280;20454;48.100;11.776;2022-08-06T00:00:59;95770.59;;;19.99;100.00
34185;BME280;20454;48.100;11.776;2022-08-06T00:03:24;95780.63;;;19.96;100.00
34185;BME280;20454;48.100;11.776;2022-08-06T00:05:50;95787.47;;;19.95;100.00
34185;BME280;20454;48.100;11.776;2022-08-06T00:08:16;95802.81;;;19.94;100.00
34185;BME280;20454;48.100;11.776;2022-08-06T00:10:42;95811.63;;;19.93;100.00
34185;BME280;20454;48.100;11.776;2022-08-06T00:13:08;95820.50;;;19.91;100.00
34185;BME280;20454;48.100;11.776;2022-08-06T00:15:34;95819.91;;;19.82;100.00
34185;BME280;20454;48.100;11.776;2022-08-06T00:18:00;95825.56;;;19.82;100.00
34185;BME280;20454;48.100;11.776;2022-08-06T00:20:25;95816.66;;;19.80;100.00
34185;BME280;20454;48.100;11.776;2022-08-06T00:22:52;95824.75;;;19.82;100.00
34185;BME280;20454;48.100;11.776;2022-08-06T00:25:18;95828.69;;;19.77;100.00
34185;BME280;20454;48.100;11.776;2022-08-06T00:27:44;95841.16;;;19.76;100.00
34185;BME280;20454;48.100;11.776;2022-08-06T00:30:10;95836.28;;;19.73;100.00
34185;BME280;20454;48.100;11.776;2022-08-06T00:32:36;95845.78;;;19.65;100.00
34185;BME280;20454;48.100;11.776;2022-08-06T00:35:04;95834.72;;;19.57;100.00
34185;BME280;20454;48.100;11.776;2022-08-06T00:37:30;95833.38;;;19.51;100.00
34185;BME280;20454;48.100;11.776;2022-08-06T00:39:59;95838.66;;;19.52;100.00
34185;BME280;20454;48.100;11.776;2022-08-06T00:42:26;95853.47;;;19.49;100.00
34185;BME280;20454;48.100;11.776;2022-08-06T00:44:52;95856.69;;;19.48;100.00
34185;BME280;20454;48.100;11.776;2022-08-06T00:47:18;95848.59;;;19.46;100.00
34185;BME280;20454;48.100;11.776;2022-08-06T00:49:43;95849.28;;;19.40;100.00
34185;BME280;20454;48.100;11.776;2022-08-06T00:52:09;95852.44;;;19.38;100.00
34185;BME280;20454;48.100;11.776;2022-08-06T00:54:35;95843.47;;;19.33;100.00
34185;BME280;20454;48.100;11.776;2022-08-06T00:57:01;95845.91;;;19.34;100.00
34185;BME280;20454;48.100;11.776;2022-08-06T00:59:27;95841.72;;;19.28;100.00
34185;BME280;20454;48.100;11.776;2022-08-06T01:01:53;95841.38;;;19.30;100.00
34185;BME280;20454;48.100;11.776;2022-08-06T01:04:19;95834.09;;;19.29;100.00
34185;BME280;20454;48.100;11.776;2022-08-06T01:06:45;95831.63;;;19.27;100.00
34185;BME280;20454;48.100;11.776;2022-08-06T01:09:10;95830.44;;;19.28;100.00
34185;BME280;20454;48.100;11.776;2022-08-06T01:11:38;95835.22;;;19.24;100.00
34185;BME280;20454;48.100;11.776;2022-08-06T01:14:04;95840.41;;;19.22;99.28
34185;BME280;20454;48.100;11.776;2022-08-06T01:30:16;95827.59;;;19.09;100.00
34185;BME280;20454;48.100;11.776;2022-08-06T01:33:07;95822.31;;;19.08;100.00
34185;BME280;20454;48.100;11.776;2022-08-06T01:35:40;95824.59;;;19.02;100.00
34185;BME280;20454;48.100;11.776;2022-08-06T01:38:16;95817.59;;;18.96;100.00
34185;BME280;20454;48.100;11.776;2022-08-06T01:40:45;95829.34;;;18.98;100.00
34185;BME280;20454;48.100;11.776;2022-08-06T01:43:16;95829.34;;;18.98;100.00
34185;BME280;20454;48.100;11.776;2022-08-06T01:45:43;95820.34;;;18.93;100.00
34185;BME280;20454;48.100;11.776;2022-08-06T01:48:16;95817.53;;;18.93;100.00
34185;BME280;20454;48.100;11.776;2022-08-06T01:50:49;95802.91;;;18.87;100.00
34185;BME280;20454;48.100;11.776;2022-08-06T01:53:23;95814.69;;;18.93;100.00
34185;BME280;20454;48.100;11.776;2022-08-06T01:55:55;95802.16;;;18.90;100.00
34185;BME280;20454;48.100;11.776;2022-08-06T01:58:32;95807.78;;;18.90;100.00
34185;BME280;20454;48.100;11.776;2022-08-06T05:36:32;95919.97;;;18.66;100.00
34185;BME280;20454;48.100;11.776;2022-08-06T05:38:59;95919.03;;;18.62;100.00
34185;BME280;20454;48.100;11.776;2022-08-06T05:41:25;95928.06;;;18.67;100.00
34185;BME280;20454;48.100;11.776;2022-08-06T05:43:51;95932.13;;;18.70;100.00
34185;BME280;20454;48.100;11.776;2022-08-06T05:46:20;95930.97;;;18.71;100.00
34185;BME280;20454;48.100;11.776;2022-08-06T05:51:53;95934.16;;;18.69;100.00
34185;BME280;20454;48.100;11.776;2022-08-06T06:00:16;95946.53;;;18.65;100.00
34185;BME280;20454;48.100;11.776;2022-08-06T06:02:47;95944.88;;;18.64;100.00
34185;BME280;20454;48.100;11.776;2022-08-06T06:05:14;95957.59;;;18.58;100.00
34185;BME280;20454;48.100;11.776;2022-08-06T06:07:41;95968.41;;;18.56;100.00
34185;BME280;20454;48.100;11.776;2022-08-06T06:10:08;95967.84;;;18.50;100.00
34185;BME280;20454;48.100;11.776;2022-08-06T06:12:35;95969.03;;;18.49;100.00
34185;BME280;20454;48.100;11.776;2022-08-06T06:15:04;95973.66;;;18.42;100.00
34185;BME280;20454;48.100;11.776;2022-08-06T06:20:32;95975.13;;;18.24;100.00
34185;BME280;20454;48.100;11.776;2022-08-06T06:23:32;95984.56;;;18.16;100.00
34185;BME280;20454;48.100;11.776;2022-08-06T06:29:06;95991.63;;;18.10;100.00
34185;BME280;20454;48.100;11.776;2022-08-06T06:32:15;95998.06;;;18.10;100.00
34185;BME280;20454;48.100;11.776;2022-08-06T06:35:00;96002.06;;;18.09;100.00
34185;BME280;20454;48.100;11.776;2022-08-06T06:37:41;96002.59;;;17.99;100.00
34185;BME280;20454;48.100;11.776;2022-08-06T06:47:02;96010.50;;;17.82;100.00
34185;BME280;20454;48.100;11.776;2022-08-06T06:52:34;96007.69;;;17.82;100.00
34185;BME280;20454;48.100;11.776;2022-08-06T06:55:35;96012.47;;;17.81;99.91
34185;BME280;20454;48.100;11.776;2022-08-06T06:58:23;96012.03;;;17.79;99.86
34185;BME280;20454;48.100;11.776;2022-08-06T07:00:52;96010.00;;;17.80;99.53
34185;BME280;20454;48.100;11.776;2022-08-06T07:03:19;96010.72;;;17.77;99.17
34185;BME280;20454;48.100;11.776;2022-08-06T07:05:49;96018.34;;;17.76;98.84
34185;BME280;20454;48.100;11.776;2022-08-06T07:08:19;96018.34;;;17.76;98.67
34185;BME280;20454;48.100;11.776;2022-08-06T07:10:46;96029.59;;;17.76;99.58
34185;BME280;20454;48.100;11.776;2022-08-06T07:13:13;96029.16;;;17.74;99.42
34185;BME280;20454;48.100;11.776;2022-08-06T07:15:42;96033.13;;;17.73;98.51
34185;BME280;20454;48.100;11.776;2022-08-06T07:18:09;96026.84;;;17.64;97.99
34185;BME280;20454;48.100;11.776;2022-08-06T07:20:36;96040.91;;;17.64;98.53
34185;BME280;20454;48.100;11.776;2022-08-06T07:23:06;96036.91;;;17.65;99.26
34185;BME280;20454;48.100;11.776;2022-08-06T07:25:40;96040.66;;;17.69;99.49
34185;BME280;20454;48.100;11.776;2022-08-06T08:25:08;96089.75;;;17.24;97.68
34185;BME280;20454;48.100;11.776;2022-08-06T08:27:34;96083.78;;;17.25;98.23
34185;BME280;20454;48.100;11.776;2022-08-06T08:30:00;96086.72;;;17.29;98.52
34185;BME280;20454;48.100;11.776;2022-08-06T08:32:26;96092.00;;;17.30;98.24
34185;BME280;20454;48.100;11.776;2022-08-06T08:34:52;96092.91;;;17.34;97.71
34185;BME280;20454;48.100;11.776;2022-08-06T08:37:18;96100.72;;;17.37;98.10
34185;BME280;20454;48.100;11.776;2022-08-06T08:39:44;96098.00;;;17.41;98.71
34185;BME280;20454;48.100;11.776;2022-08-06T08:42:19;96108.09;;;17.42;98.14
34185;BME280;20454;48.100;11.776;2022-08-06T08:44:49;96093.56;;;17.40;97.74
34185;BME280;20454;48.100;11.776;2022-08-06T08:47:16;96106.00;;;17.39;97.08
34185;BME280;20454;48.100;11.776;2022-08-06T08:49:51;96100.22;;;17.35;97.54
34185;BME280;20454;48.100;11.776;2022-08-06T08:52:31;96105.16;;;17.38;98.52
34185;BME280;20454;48.100;11.776;2022-08-06T08:55:02;96108.81;;;17.39;98.18
34185;BME280;20454;48.100;11.776;2022-08-06T08:57:28;96117.38;;;17.42;99.02
34185;BME280;20454;48.100;11.776;2022-08-06T08:59:54;96117.72;;;17.41;99.18
34185;BME280;20454;48.100;11.776;2022-08-06T09:02:24;96120.06;;;17.39;98.53
34185;BME280;20454;48.100;11.776;2022-08-06T09:04:53;96119.91;;;17.35;97.94
34185;BME280;20454;48.100;11.776;2022-08-06T09:07:19;96121.75;;;17.31;97.88
34185;BME280;20454;48.100;11.776;2022-08-06T09:09:46;96122.94;;;17.30;97.98
34185;BME280;20454;48.100;11.776;2022-08-06T09:12:12;96123.63;;;17.27;98.33
34185;BME280;20454;48.100;11.776;2022-08-06T09:14:38;96125.28;;;17.28;98.72
34185;BME280;20454;48.100;11.776;2022-08-06T09:17:05;96128.91;;;17.29;98.70
34185;BME280;20454;48.100;11.776;2022-08-06T09:19:32;96128.91;;;17.29;98.40
34185;BME280;20454;48.100;11.776;2022-08-06T09:21:59;96126.09;;;17.29;98.89
34185;BME280;20454;48.100;11.776;2022-08-06T09:24:26;96133.72;;;17.28;98.97
34185;BME280;20454;48.100;11.776;2022-08-06T09:31:03;96135.00;;;17.31;99.00
34185;BME280;20454;48.100;11.776;2022-08-06T09:33:32;96135.84;;;17.31;99.20
34185;BME280;20454;48.100;11.776;2022-08-06T09:36:06;96136.28;;;17.33;98.65
34185;BME280;20454;48.100;11.776;2022-08-06T09:39:02;96131.66;;;17.37;99.09
34185;BME280;20454;48.100;11.776;2022-08-06T09:41:31;96138.44;;;17.48;99.29
34185;BME280;20454;48.100;11.776;2022-08-06T09:43:57;96136.69;;;17.56;99.40
34185;BME280;20454;48.100;11.776;2022-08-06T09:46:45;96130.97;;;17.64;99.06
34185;BME280;20454;48.100;11.776;2022-08-06T09:49:13;96133.53;;;17.69;98.25
34185;BME280;20454;48.100;11.776;2022-08-06T09:51:40;96132.59;;;17.65;97.43
34185;BME280;20454;48.100;11.776;2022-08-06T09:54:10;96144.56;;;17.74;97.01
34185;BME280;20454;48.100;11.776;2022-08-06T09:56:38;96137.28;;;17.85;97.94
34185;BME280;20454;48.100;11.776;2022-08-06T09:59:07;96140.56;;;17.99;97.48
34185;BME280;20454;48.100;11.776;2022-08-06T10:01:43;96133.47;;;18.17;96.67
34185;BME280;20454;48.100;11.776;2022-08-06T10:04:25;96141.72;;;18.34;94.88
34185;BME280;20454;48.100;11.776;2022-08-06T10:07:01;96138.75;;;18.43;93.02
34185;BME280;20454;48.100;11.776;2022-08-06T10:09:27;96136.28;;;18.41;91.86
34185;BME280;20454;48.100;11.776;2022-08-06T10:11:54;96140.50;;;18.47;91.35
34185;BME280;20454;48.100;11.776;2022-08-06T10:14:26;96135.22;;;18.46;91.99
34185;BME280;20454;48.100;11.776;2022-08-06T10:17:14;96147.44;;;18.50;92.89
34185;BME280;20454;48.100;11.776;2022-08-06T10:19:44;96143.66;;;18.46;92.41
34185;BME280;20454;48.100;11.776;2022-08-06T10:22:17;96144.84;;;18.45;92.59
34185;BME280;20454;48.100;11.776;2022-08-06T10:24:49;96142.25;;;18.52;94.18
34185;BME280;20454;48.100;11.776;2022-08-06T10:27:25;96136.59;;;18.79;95.03
34185;BME280;20454;48.100;11.776;2022-08-06T10:30:01;96145.50;;;19.21;92.34
34185;BME280;20454;48.100;11.776;2022-08-06T10:32:37;96149.34;;;19.44;88.89
34185;BME280;20454;48.100;11.776;2022-08-06T10:35:06;96150.81;;;19.69;86.88
34185;BME280;20454;48.100;11.776;2022-08-06T10:37:39;96149.56;;;19.82;85.81
34185;BME280;20454;48.100;11.776;2022-08-06T10:40:09;96149.91;;;19.80;83.87
34185;BME280;20454;48.100;11.776;2022-08-06T10:42:38;96154.44;;;19.69;84.25
34185;BME280;20454;48.100;11.776;2022-08-06T10:45:05;96152.63;;;19.61;84.75
34185;BME280;20454;48.100;11.776;2022-08-06T10:47:33;96157.56;;;19.64;85.24
34185;BME280;20454;48.100;11.776;2022-08-06T10:50:00;96146.38;;;19.68;85.61
34185;BME280;20454;48.100;11.776;2022-08-06T10:52:26;96149.09;;;19.64;86.13
34185;BME280;20454;48.100;11.776;2022-08-06T10:54:53;96151.00;;;19.76;85.95
34185;BME280;20454;48.100;11.776;2022-08-06T10:57:19;96145.44;;;19.79;86.25
34185;BME280;20454;48.100;11.776;2022-08-06T10:59:45;96152.06;;;19.87;84.70
34185;BME280;20454;48.100;11.776;2022-08-06T11:02:42;96153.16;;;19.98;84.66
34185;BME280;20454;48.100;11.776;2022-08-06T11:05:17;96140.41;;;20.04;83.90
34185;BME280;20454;48.100;11.776;2022-08-06T11:13:53;96138.22;;;20.13;83.46
34185;BME280;20454;48.100;11.776;2022-08-06T11:16:28;96142.25;;;20.12;82.90
34185;BME280;20454;48.100;11.776;2022-08-06T11:19:04;96138.03;;;20.21;82.89
34185;BME280;20454;48.100;11.776;2022-08-06T11:21:45;96139.84;;;20.29;82.32
34185;BME280;20454;48.100;11.776;2022-08-06T11:24:12;96134.78;;;20.38;82.85
34185;BME280;20454;48.100;11.776;2022-08-06T11:26:42;96130.13;;;20.46;82.01
34185;BME280;20454;48.100;11.776;2022-08-06T11:29:10;96125.38;;;20.50;82.28
34185;BME280;20454;48.100;11.776;2022-08-06T11:31:41;96129.59;;;20.40;80.78
34185;BME280;20454;48.100;11.776;2022-08-06T11:34:12;96113.47;;;20.25;81.94
34185;BME280;20454;48.100;11.776;2022-08-06T11:36:58;96120.25;;;20.21;83.47
34185;BME280;20454;48.100;11.776;2022-08-06T11:39:26;96122.72;;;20.22;83.81
34185;BME280;20454;48.100;11.776;2022-08-06T11:42:01;96118.06;;;20.30;82.99
34185;BME280;20454;48.100;11.776;2022-08-06T11:44:33;96112.91;;;20.35;83.37
34185;BME280;20454;48.100;11.776;2022-08-06T11:47:16;96117.81;;;20.38;83.14
34185;BME280;20454;48.100;11.776;2022-08-06T11:49:47;96116.97;;;20.53;82.52
34185;BME280;20454;48.100;11.776;2022-08-06T11:55:01;96110.59;;;20.94;79.00
34185;BME280;20454;48.100;11.776;2022-08-06T11:57:27;96111.69;;;21.08;78.67
34185;BME280;20454;48.100;11.776;2022-08-06T12:08:10;96113.19;;;21.02;77.54
34185;BME280;20454;48.100;11.776;2022-08-06T12:10:32;96122.59;;;20.87;77.90
34185;BME280;20454;48.100;11.776;2022-08-06T12:12:58;96124.19;;;20.69;78.50
34185;BME280;20454;48.100;11.776;2022-08-06T12:20:42;96121.53;;;20.23;82.96
34185;BME280;20454;48.100;11.776;2022-08-06T12:23:12;96117.72;;;20.16;82.88
34185;BME280;20454;48.100;11.776;2022-08-06T12:25:44;96119.19;;;20.10;83.61
34185;BME280;20454;48.100;11.776;2022-08-06T12:28:14;96114.53;;;20.02;83.66
34185;BME280;20454;48.100;11.776;2022-08-06T12:30:53;96117.09;;;19.91;82.23
34185;BME280;20454;48.100;11.776;2022-08-06T12:33:21;96117.66;;;19.81;83.17
34185;BME280;20454;48.100;11.776;2022-08-06T12:36:00;96117.91;;;19.76;82.42
34185;BME280;20454;48.100;11.776;2022-08-06T12:38:29;96118.66;;;19.73;83.93
34185;BME280;20454;48.100;11.776;2022-08-06T12:41:09;96115.56;;;19.78;84.57
34185;BME280;20454;48.100;11.776;2022-08-06T12:43:36;96122.41;;;19.77;83.72
34185;BME280;20454;48.100;11.776;2022-08-06T12:46:05;96114.66;;;19.74;85.15
34185;BME280;20454;48.100;11.776;2022-08-06T12:48:34;96113.47;;;19.75;84.59
34185;BME280;20454;48.100;11.776;2022-08-06T12:51:11;96107.00;;;19.75;85.19
34185;BME280;20454;48.100;11.776;2022-08-06T12:54:04;96107.09;;;19.78;85.55
34185;BME280;20454;48.100;11.776;2022-08-06T12:56:32;96106.72;;;19.80;85.03
34185;BME280;20454;48.100;11.776;2022-08-06T12:59:02;96099.91;;;19.81;83.58
34185;BME280;20454;48.100;11.776;2022-08-06T13:01:30;96100.59;;;19.93;84.38
34185;BME280;20454;48.100;11.776;2022-08-06T13:03:58;96103.69;;;20.04;84.28
34185;BME280;20454;48.100;11.776;2022-08-06T13:06:27;96100.31;;;20.14;84.07
34185;BME280;20454;48.100;11.776;2022-08-06T13:08:55;96109.78;;;20.21;83.03
34185;BME280;20454;48.100;11.776;2022-08-06T13:11:30;96098.19;;;20.26;82.43
34185;BME280;20454;48.100;11.776;2022-08-06T13:13:56;96110.00;;;20.32;82.18
34185;BME280;20454;48.100;11.776;2022-08-06T13:16:24;96098.72;;;20.32;81.75
34185;BME280;20454;48.100;11.776;2022-08-06T13:19:09;96098.72;;;20.32;81.42
34185;BME280;20454;48.100;11.776;2022-08-06T13:21:37;96104.00;;;20.33;82.41
34185;BME280;20454;48.100;11.776;2022-08-06T13:24:04;96104.53;;;20.39;82.53
34185;BME280;20454;48.100;11.776;2022-08-06T13:26:33;96108.69;;;20.45;81.60
34185;BME280;20454;48.100;11.776;2022-08-06T13:29:18;96103.03;;;20.45;82.15
34185;BME280;20454;48.100;11.776;2022-08-06T13:31:46;96100.22;;;20.45;81.27
34185;BME280;20454;48.100;11.776;2022-08-06T13:34:16;96106.66;;;20.45;80.64
34185;BME280;20454;48.100;11.776;2022-08-06T13:36:52;96102.22;;;20.44;81.73
34185;BME280;20454;48.100;11.776;2022-08-06T13:39:30;96105.13;;;20.48;81.18
34185;BME280;20454;48.100;11.776;2022-08-06T13:42:14;96108.03;;;20.51;80.52
34185;BME280;20454;48.100;11.776;2022-08-06T13:44:43;96113.41;;;20.56;81.04
34185;BME280;20454;48.100;11.776;2022-08-06T13:47:12;96103.56;;;20.50;80.82
34185;BME280;20454;48.100;11.776;2022-08-06T13:49:42;96112.31;;;20.45;80.11
34185;BME280;20454;48.100;11.776;2022-08-06T13:52:09;96108.16;;;20.39;80.83
34185;BME280;20454;48.100;11.776;2022-08-06T13:54:35;96110.09;;;20.35;83.44
34185;BME280;20454;48.100;11.776;2022-08-06T13:57:02;96107.19;;;20.32;82.72
34185;BME280;20454;48.100;11.776;2022-08-06T13:59:31;96103.16;;;20.33;82.34
34185;BME280;20454;48.100;11.776;2022-08-06T14:01:58;96100.22;;;20.45;81.56
34185;BME280;20454;48.100;11.776;2022-08-06T14:04:25;96094.44;;;20.57;80.22
34185;BME280;20454;48.100;11.776;2022-08-06T14:06:54;96098.72;;;20.69;78.58
34185;BME280;20454;48.100;11.776;2022-08-06T14:09:26;96103.13;;;20.86;78.35
34185;BME280;20454;48.100;11.776;2022-08-06T14:11:56;96113.88;;;20.96;77.79
34185;BME280;20454;48.100;11.776;2022-08-06T14:14:24;96109.09;;;21.00;77.90
34185;BME280;20454;48.100;11.776;2022-08-06T14:16:50;96108.66;;;20.98;77.25
34185;BME280;20454;48.100;11.776;2022-08-06T14:19:16;96106.66;;;20.98;77.12
34185;BME280;20454;48.100;11.776;2022-08-06T14:21:42;96107.09;;;21.00;75.56
34185;BME280;20454;48.100;11.776;2022-08-06T14:24:08;96105.97;;;21.05;74.86
34185;BME280;20454;48.100;11.776;2022-08-06T14:26:34;96104.59;;;21.18;75.06
34185;BME280;20454;48.100;11.776;2022-08-06T14:29:00;96094.75;;;21.31;75.58
34185;BME280;20454;48.100;11.776;2022-08-06T14:31:30;96101.94;;;21.47;73.81
34185;BME280;20454;48.100;11.776;2022-08-06T14:33:56;96091.09;;;21.53;72.74
34185;BME280;20454;48.100;11.776;2022-08-06T14:36:22;96096.13;;;21.63;72.16
34185;BME280;20454;48.100;11.776;2022-08-06T14:38:47;96093.13;;;21.75;71.71
34185;BME280;20454;48.100;11.776;2022-08-06T14:41:13;96090.06;;;21.83;70.99
34185;BME280;20454;48.100;11.776;2022-08-06T14:43:57;96083.66;;;21.90;70.96
34185;BME280;20454;48.100;11.776;2022-08-06T14:46:42;96083.59;;;21.86;70.36
34185;BME280;20454;48.100;11.776;2022-08-06T14:49:08;96086.00;;;21.84;69.87
34185;BME280;20454;48.100;11.776;2022-08-06T14:51:33;96088.41;;;21.82;69.77
34185;BME280;20454;48.100;11.776;2022-08-06T14:53:59;96080.59;;;21.76;70.85
34185;BME280;20454;48.100;11.776;2022-08-06T14:56:25;96087.09;;;21.76;70.59
34185;BME280;20454;48.100;11.776;2022-08-06T14:58:51;96093.06;;;21.71;70.25
34185;BME280;20454;48.100;11.776;2022-08-06T15:01:16;96084.16;;;21.69;69.08
34185;BME280;20454;48.100;11.776;2022-08-06T15:03:42;96074.72;;;21.65;69.07
34185;BME280;20454;48.100;11.776;2022-08-06T15:06:08;96087.63;;;21.63;69.30
34185;BME280;20454;48.100;11.776;2022-08-06T15:08:36;96086.97;;;21.69;71.65
34185;BME280;20454;48.100;11.776;2022-08-06T15:11:02;96071.25;;;21.72;71.59
34185;BME280;20454;48.100;11.776;2022-08-06T15:13:28;96081.88;;;21.78;71.04
34185;BME280;20454;48.100;11.776;2022-08-06T15:15:54;96076.25;;;21.82;71.25
34185;BME280;20454;48.100;11.776;2022-08-06T15:18:20;96082.88;;;21.89;70.83
34185;BME280;20454;48.100;11.776;2022-08-06T15:20:46;96078.06;;;21.93;69.35
34185;BME280;20454;48.100;11.776;2022-08-06T15:23:12;96074.13;;;22.01;67.82
34185;BME280;20454;48.100;11.776;2022-08-06T15:25:38;96082.00;;;22.11;69.44
34185;BME280;20454;48.100;11.776;2022-08-06T15:28:04;96081.28;;;22.18;67.99
34185;BME280;20454;48.100;11.776;2022-08-06T15:30:30;96077.38;;;22.26;67.81
34185;BME280;20454;48.100;11.776;2022-08-06T15:32:56;96074.59;;;22.29;68.03
34185;BME280;20454;48.100;11.776;2022-08-06T15:35:24;96069.34;;;22.31;65.86
34185;BME280;20454;48.100;11.776;2022-08-06T15:37:50;96070.53;;;22.30;65.22
34185;BME280;20454;48.100;11.776;2022-08-06T15:40:18;96069.59;;;22.23;65.14
34185;BME280;20454;48.100;11.776;2022-08-06T15:42:45;96066.72;;;22.19;66.86
34185;BME280;20454;48.100;11.776;2022-08-06T15:45:11;96062.94;;;22.12;66.18
34185;BME280;20454;48.100;11.776;2022-08-06T15:47:39;96064.50;;;22.06;66.78
34185;BME280;20454;48.100;11.776;2022-08-06T15:50:06;96066.03;;;22.00;67.11
34185;BME280;20454;48.100;11.776;2022-08-06T15:52:34;96067.19;;;21.95;69.07
34185;BME280;20454;48.100;11.776;2022-08-06T15:55:01;96067.13;;;21.92;68.58
34185;BME280;20454;48.100;11.776;2022-08-06T15:57:28;96069.44;;;21.86;66.10
34185;BME280;20454;48.100;11.776;2022-08-06T15:59:54;96060.34;;;21.74;67.28
34185;BME280;20454;48.100;11.776;2022-08-06T16:02:20;96059.03;;;21.68;69.67
34185;BME280;20454;48.100;11.776;2022-08-06T16:04:46;96058.06;;;21.60;69.05
34185;BME280;20454;48.100;11.776;2022-08-06T16:07:11;96069.22;;;21.50;69.96
34185;BME280;20454;48.100;11.776;2022-08-06T16:09:38;96059.63;;;21.35;70.93
34185;BME280;20454;48.100;11.776;2022-08-06T16:12:04;96067.19;;;21.28;70.11
34185;BME280;20454;48.100;11.776;2022-08-06T16:14:31;96051.25;;;21.20;71.03
34185;BME280;20454;48.100;11.776;2022-08-06T16:16:57;96059.69;;;21.16;71.28
34185;BME280;20454;48.100;11.776;2022-08-06T16:19:23;96055.16;;;21.12;71.22
34185;BME280;20454;48.100;11.776;2022-08-06T16:21:49;96062.75;;;21.08;71.05
34185;BME280;20454;48.100;11.776;2022-08-06T16:24:16;96053.75;;;21.02;72.22
34185;BME280;20454;48.100;11.776;2022-08-06T16:26:42;96056.59;;;21.02;72.09
34185;BME280;20454;48.100;11.776;2022-08-06T16:29:10;96058.63;;;21.02;72.40
34185;BME280;20454;48.100;11.776;2022-08-06T16:31:36;96056.22;;;21.04;70.76
34185;BME280;20454;48.100;11.776;2022-08-06T16:34:02;96055.03;;;21.05;71.06
34185;BME280;20454;48.100;11.776;2022-08-06T16:36:28;96051.91;;;21.10;70.13
34185;BME280;20454;48.100;11.776;2022-08-06T16:38:54;96046.31;;;21.13;71.03
34185;BME280;20454;48.100;11.776;2022-08-06T16:41:19;96046.81;;;21.19;71.44
34185;BME280;20454;48.100;11.776;2022-08-06T16:43:45;96046.50;;;21.24;72.96
34185;BME280;20454;48.100;11.776;2022-08-06T16:46:13;96046.03;;;21.22;71.56
34185;BME280;20454;48.100;11.776;2022-08-06T16:48:39;96039.13;;;21.19;70.87
34185;BME280;20454;48.100;11.776;2022-08-06T16:51:05;96032.22;;;21.17;72.48
34185;BME280;20454;48.100;11.776;2022-08-06T16:53:32;96027.16;;;21.07;70.84
34185;BME280;20454;48.100;11.776;2022-08-06T16:55:58;96036.78;;;21.02;71.79
34185;BME280;20454;48.100;11.776;2022-08-06T16:58:24;96035.00;;;20.94;71.46
34185;BME280;20454;48.100;11.776;2022-08-06T17:00:50;96039.34;;;20.88;71.90
34185;BME280;20454;48.100;11.776;2022-08-06T17:03:16;96025.47;;;20.83;72.97
34185;BME280;20454;48.100;11.776;2022-08-06T17:05:42;96024.16;;;20.77;73.43
34185;BME280;20454;48.100;11.776;2022-08-06T17:08:08;96027.72;;;20.74;74.41
34185;BME280;20454;48.100;11.776;2022-08-06T17:10:34;96026.84;;;20.70;74.80
34185;BME280;20454;48.100;11.776;2022-08-06T17:12:59;96019.03;;;20.64;75.53
34185;BME280;20454;48.100;11.776;2022-08-06T17:15:25;96021.78;;;20.60;75.57
34185;BME280;20454;48.100;11.776;2022-08-06T17:17:51;96022.84;;;20.52;75.54
34185;BME280;20454;48.100;11.776;2022-08-06T17:20:17;96026.41;;;20.50;76.53
34185;BME280;20454;48.100;11.776;2022-08-06T17:22:43;96018.94;;;20.42;76.60
34185;BME280;20454;48.100;11.776;2022-08-06T17:25:11;96018.94;;;20.42;76.43
34185;BME280;20454;48.100;11.776;2022-08-06T17:27:39;96021.28;;;20.36;76.29
34185;BME280;20454;48.100;11.776;2022-08-06T17:30:08;96031.22;;;20.30;77.96
34185;BME280;20454;48.100;11.776;2022-08-06T17:32:37;96031.59;;;20.29;78.27
34185;BME280;20454;48.100;11.776;2022-08-06T17:35:11;96034.75;;;20.24;79.01
34185;BME280;20454;48.100;11.776;2022-08-06T17:37:44;96034.25;;;20.22;80.21
34185;BME280;20454;48.100;11.776;2022-08-06T17:40:25;96020.81;;;20.15;80.91
34185;BME280;20454;48.100;11.776;2022-08-06T17:42:52;96020.81;;;20.15;82.06
34185;BME280;20454;48.100;11.776;2022-08-06T17:45:18;96023.66;;;20.15;82.30
34185;BME280;20454;48.100;11.776;2022-08-06T17:47:45;96018.00;;;20.15;82.91
34185;BME280;20454;48.100;11.776;2022-08-06T17:50:12;96026.81;;;20.14;83.62
34185;BME280;20454;48.100;11.776;2022-08-06T17:52:38;96026.75;;;20.10;84.04
34185;BME280;20454;48.100;11.776;2022-08-06T17:55:05;96026.94;;;20.02;85.54
34185;BME280;20454;48.100;11.776;2022-08-06T17:57:31;96027.31;;;20.00;85.95
34185;BME280;20454;48.100;11.776;2022-08-06T17:59:57;96020.31;;;19.94;86.57
34185;BME280;20454;48.100;11.776;2022-08-06T18:02:22;96023.06;;;19.91;87.92
34185;BME280;20454;48.100;11.776;2022-08-06T18:04:49;96023.34;;;19.86;88.59
34185;BME280;20454;48.100;11.776;2022-08-06T18:07:16;96027.72;;;19.83;88.97
34185;BME280;20454;48.100;11.776;2022-08-06T18:09:44;96028.47;;;19.80;89.08
34185;BME280;20454;48.100;11.776;2022-08-06T18:12:30;96026.38;;;19.77;89.69
34185;BME280;20454;48.100;11.776;2022-08-06T18:14:57;96021.72;;;19.69;88.77
34185;BME280;20454;48.100;11.776;2022-08-06T18:17:22;96028.47;;;19.65;89.12
34185;BME280;20454;48.100;11.776;2022-08-06T18:19:48;96042.25;;;19.66;90.27
34185;BME280;20454;48.100;11.776;2022-08-06T19:39:58;96072.22;;;18.14;100.00
34185;BME280;20454;48.100;11.776;2022-08-06T19:42:43;96067.78;;;18.13;100.00
34185;BME280;20454;48.100;11.776;2022-08-06T19:45:09;96057.22;;;18.10;100.00
34185;BME280;20454;48.100;11.776;2022-08-06T19:47:35;96066.59;;;18.14;100.00
34185;BME280;20454;48.100;11.776;2022-08-06T19:50:02;96075.41;;;18.13;100.00
34185;BME280;20454;48.100;11.776;2022-08-06T19:52:27;96078.59;;;18.11;100.00
34185;BME280;20454;48.100;11.776;2022-08-06T19:54:54;96072.03;;;18.07;100.00